sensor_id;sensor_type;location;lat;lon;timestamp;P1;durP1;ratioP1;P2;durP2;ratioP2
8714;SDS011;4394;51.208;8.904;2023-07-22T00:02:11;10.03;;;7.67;;
8714;SDS011;4394;51.208;8.904;2023-07-22T00:04:59;11.47;;;7.83;;
8714;SDS011;4394;51.208;8.904;2023-07-22T00:07:48;9.90;;;7.70;;
8714;SDS011;4394;51.208;8.904;2023-07-22T00:10:41;9.90;;;7.73;;
8714;SDS011;4394;51.208;8.904;2023-07-22T00:13:29;9.77;;;7.47;;
8714;SDS011;4394;51.208;8.904;2023-07-22T00:16:18;9.00;;;7.13;;
8714;SDS011;4394;51.208;8.904;2023-07-22T00:19:06;11.33;;;7.37;;
8714;SDS011;4394;51.208;8.904;2023-07-22T00:21:54;10.20;;;7.57;;
8714;SDS011;4394;51.208;8.904;2023-07-22T00:24:42;9.00;;;7.10;;
8714;SDS011;4394;51.208;8.904;2023-07-22T00:27:32;10.17;;;7.53;;
8714;SDS011;4394;51.208;8.904;2023-07-22T00:30:20;10.47;;;6.97;;
8714;SDS011;4394;51.208;8.904;2023-07-22T00:33:10;10.87;;;7.70;;
8714;SDS011;4394;51.208;8.904;2023-07-22T00:35:59;9.33;;;6.97;;
8714;SDS011;4394;51.208;8.904;2023-07-22T00:38:47;11.97;;;7.60;;
8714;SDS011;4394;51.208;8.904;2023-07-22T00:41:35;9.53;;;6.60;;
8714;SDS011;4394;51.208;8.904;2023-07-22T00:44:24;9.87;;;7.20;;
8714;SDS011;4394;51.208;8.904;2023-07-22T00:47:12;12.20;;;7.77;;
8714;SDS011;4394;51.208;8.904;2023-07-22T00:50:02;8.77;;;6.97;;
8714;SDS011;4394;51.208;8.904;2023-07-22T00:52:52;10.53;;;7.17;;
8714;SDS011;4394;51.208;8.904;2023-07-22T00:55:40;10.85;;;8.00;;
8714;SDS011;4394;51.208;8.904;2023-07-22T00:58:29;11.67;;;7.80;;
8714;SDS011;4394;51.208;8.904;2023-07-22T01:01:18;10.80;;;7.80;;
8714;SDS011;4394;51.208;8.904;2023-07-22T01:04:06;9.90;;;7.23;;
8714;SDS011;4394;51.208;8.904;2023-07-22T01:06:55;9.87;;;7.30;;
8714;SDS011;4394;51.208;8.904;2023-07-22T01:09:45;9.63;;;6.90;;
8714;SDS011;4394;51.208;8.904;2023-07-22T01:12:33;9.27;;;7.10;;
8714;SDS011;4394;51.208;8.904;2023-07-22T01:15:22;8.63;;;6.50;;
8714;SDS011;4394;51.208;8.904;2023-07-22T01:18:12;9.03;;;6.60;;
8714;SDS011;4394;51.208;8.904;2023-07-22T01:21:00;9.03;;;6.37;;
8714;SDS011;4394;51.208;8.904;2023-07-22T01:23:50;8.97;;;6.93;;
8714;SDS011;4394;51.208;8.904;2023-07-22T01:26:38;9.70;;;6.70;;
8714;SDS011;4394;51.208;8.904;2023-07-22T01:29:27;8.70;;;6.80;;
8714;SDS011;4394;51.208;8.904;2023-07-22T01:32:15;9.87;;;6.80;;
8714;SDS011;4394;51.208;8.904;2023-07-22T01:35:04;9.87;;;6.97;;
8714;SDS011;4394;51.208;8.904;2023-07-22T01:37:54;8.23;;;6.90;;
8714;SDS011;4394;51.208;8.904;2023-07-22T01:40:43;7.73;;;6.43;;
8714;SDS011;4394;51.208;8.904;2023-07-22T01:43:31;10.67;;;6.50;;
8714;SDS011;4394;51.208;8.904;2023-07-22T01:46:19;10.57;;;6.90;;
8714;SDS011;4394;51.208;8.904;2023-07-22T01:49:10;7.33;;;5.90;;
8714;SDS011;4394;51.208;8.904;2023-07-22T01:51:59;8.97;;;6.40;;
8714;SDS011;4394;51.208;8.904;2023-07-22T01:54:48;8.57;;;6.67;;
8714;SDS011;4394;51.208;8.904;2023-07-22T01:57:37;9.43;;;6.67;;
8714;SDS011;4394;51.208;8.904;2023-07-22T02:00:26;9.10;;;6.83;;
8714;SDS011;4394;51.208;8.904;2023-07-22T02:03:14;10.57;;;7.70;;
8714;SDS011;4394;51.208;8.904;2023-07-22T02:06:03;8.80;;;7.07;;
8714;SDS011;4394;51.208;8.904;2023-07-22T02:08:51;8.83;;;7.10;;
8714;SDS011;4394;51.208;8.904;2023-07-22T02:11:39;10.13;;;7.10;;
8714;SDS011;4394;51.208;8.904;2023-07-22T02:14:29;9.90;;;6.70;;
8714;SDS011;4394;51.208;8.904;2023-07-22T02:17:17;11.05;;;8.23;;
8714;SDS011;4394;51.208;8.904;2023-07-22T02:20:07;10.07;;;7.27;;
8714;SDS011;4394;51.208;8.904;2023-07-22T02:22:56;10.50;;;7.40;;
8714;SDS011;4394;51.208;8.904;2023-07-22T02:25:44;9.40;;;7.43;;
8714;SDS011;4394;51.208;8.904;2023-07-22T02:28:35;9.87;;;7.70;;
8714;SDS011;4394;51.208;8.904;2023-07-22T02:31:25;9.83;;;7.90;;
8714;SDS011;4394;51.208;8.904;2023-07-22T02:34:14;10.67;;;7.40;;
8714;SDS011;4394;51.208;8.904;2023-07-22T02:37:04;9.63;;;7.37;;
8714;SDS011;4394;51.208;8.904;2023-07-22T02:39:53;9.77;;;6.87;;
8714;SDS011;4394;51.208;8.904;2023-07-22T02:42:42;9.27;;;7.53;;
8714;SDS011;4394;51.208;8.904;2023-07-22T02:45:30;8.90;;;7.00;;
8714;SDS011;4394;51.208;8.904;2023-07-22T02:48:19;12.47;;;7.57;;
8714;SDS011;4394;51.208;8.904;2023-07-22T02:51:08;10.77;;;7.47;;
8714;SDS011;4394;51.208;8.904;2023-07-22T02:53:57;9.30;;;7.50;;
8714;SDS011;4394;51.208;8.904;2023-07-22T02:56:45;12.40;;;7.33;;
8714;SDS011;4394;51.208;8.904;2023-07-22T02:59:33;11.53;;;7.30;;
8714;SDS011;4394;51.208;8.904;2023-07-22T03:02:21;9.40;;;7.63;;
8714;SDS011;4394;51.208;8.904;2023-07-22T03:05:11;9.20;;;6.87;;
8714;SDS011;4394;51.208;8.904;2023-07-22T03:07:59;10.40;;;7.50;;
8714;SDS011;4394;51.208;8.904;2023-07-22T03:10:47;10.03;;;7.63;;
8714;SDS011;4394;51.208;8.904;2023-07-22T03:13:35;12.77;;;7.80;;
8714;SDS011;4394;51.208;8.904;2023-07-22T03:16:23;11.87;;;7.73;;
8714;SDS011;4394;51.208;8.904;2023-07-22T03:19:12;12.00;;;8.07;;
8714;SDS011;4394;51.208;8.904;2023-07-22T03:22:02;11.77;;;8.23;;
8714;SDS011;4394;51.208;8.904;2023-07-22T03:24:50;11.00;;;7.57;;
8714;SDS011;4394;51.208;8.904;2023-07-22T03:27:39;11.25;;;8.48;;
8714;SDS011;4394;51.208;8.904;2023-07-22T03:30:27;12.60;;;8.27;;
8714;SDS011;4394;51.208;8.904;2023-07-22T03:33:15;10.40;;;7.63;;
8714;SDS011;4394;51.208;8.904;2023-07-22T03:36:04;7.90;;;6.40;;
8714;SDS011;4394;51.208;8.904;2023-07-22T03:38:53;10.77;;;7.50;;
8714;SDS011;4394;51.208;8.904;2023-07-22T03:41:41;11.30;;;8.75;;
8714;SDS011;4394;51.208;8.904;2023-07-22T03:44:29;9.83;;;7.27;;
8714;SDS011;4394;51.208;8.904;2023-07-22T03:47:19;11.47;;;7.93;;
8714;SDS011;4394;51.208;8.904;2023-07-22T03:50:07;10.10;;;7.33;;
8714;SDS011;4394;51.208;8.904;2023-07-22T03:52:56;9.33;;;7.20;;
8714;SDS011;4394;51.208;8.904;2023-07-22T03:55:46;11.10;;;7.37;;
8714;SDS011;4394;51.208;8.904;2023-07-22T03:58:34;11.17;;;7.47;;
8714;SDS011;4394;51.208;8.904;2023-07-22T04:01:22;11.03;;;8.27;;
8714;SDS011;4394;51.208;8.904;2023-07-22T04:04:11;10.60;;;7.77;;
8714;SDS011;4394;51.208;8.904;2023-07-22T04:06:59;11.67;;;7.80;;
8714;SDS011;4394;51.208;8.904;2023-07-22T04:09:47;10.77;;;7.73;;
8714;SDS011;4394;51.208;8.904;2023-07-22T04:12:36;10.60;;;8.37;;
8714;SDS011;4394;51.208;8.904;2023-07-22T04:15:28;10.80;;;7.97;;
8714;SDS011;4394;51.208;8.904;2023-07-22T04:18:18;11.07;;;7.43;;
8714;SDS011;4394;51.208;8.904;2023-07-22T04:21:06;10.90;;;8.10;;
8714;SDS011;4394;51.208;8.904;2023-07-22T04:23:55;9.33;;;7.33;;
8714;SDS011;4394;51.208;8.904;2023-07-22T04:26:43;11.00;;;7.57;;
8714;SDS011;4394;51.208;8.904;2023-07-22T04:29:33;14.03;;;8.50;;
8714;SDS011;4394;51.208;8.904;2023-07-22T04:32:22;11.73;;;7.87;;
8714;SDS011;4394;51.208;8.904;2023-07-22T04:35:10;12.80;;;7.47;;
8714;SDS011;4394;51.208;8.904;2023-07-22T04:37:58;10.40;;;7.80;;
8714;SDS011;4394;51.208;8.904;2023-07-22T04:40:46;10.63;;;8.17;;
8714;SDS011;4394;51.208;8.904;2023-07-22T04:43:34;9.60;;;7.93;;
8714;SDS011;4394;51.208;8.904;2023-07-22T04:46:24;10.23;;;7.43;;
8714;SDS011;4394;51.208;8.904;2023-07-22T04:49:13;10.70;;;8.10;;
8714;SDS011;4394;51.208;8.904;2023-07-22T04:52:05;10.87;;;7.37;;
8714;SDS011;4394;51.208;8.904;2023-07-22T04:54:54;10.73;;;7.90;;
8714;SDS011;4394;51.208;8.904;2023-07-22T04:57:42;13.80;;;8.77;;
8714;SDS011;4394;51.208;8.904;2023-07-22T05:00:31;11.07;;;7.60;;
8714;SDS011;4394;51.208;8.904;2023-07-22T05:03:21;11.60;;;7.93;;
8714;SDS011;4394;51.208;8.904;2023-07-22T05:06:11;11.57;;;8.20;;
8714;SDS011;4394;51.208;8.904;2023-07-22T05:08:59;9.37;;;7.63;;
8714;SDS011;4394;51.208;8.904;2023-07-22T05:11:47;11.27;;;8.77;;
8714;SDS011;4394;51.208;8.904;2023-07-22T05:14:35;9.53;;;7.60;;
8714;SDS011;4394;51.208;8.904;2023-07-22T05:17:23;11.63;;;8.07;;
8714;SDS011;4394;51.208;8.904;2023-07-22T05:20:13;10.50;;;7.83;;
8714;SDS011;4394;51.208;8.904;2023-07-22T05:23:01;13.30;;;8.40;;
8714;SDS011;4394;51.208;8.904;2023-07-22T05:25:53;9.83;;;7.83;;
8714;SDS011;4394;51.208;8.904;2023-07-22T05:28:41;9.57;;;7.23;;
8714;SDS011;4394;51.208;8.904;2023-07-22T05:31:29;12.63;;;8.17;;
8714;SDS011;4394;51.208;8.904;2023-07-22T05:34:17;11.47;;;7.63;;
8714;SDS011;4394;51.208;8.904;2023-07-22T05:37:06;10.70;;;7.33;;
8714;SDS011;4394;51.208;8.904;2023-07-22T05:39:55;10.97;;;7.47;;
8714;SDS011;4394;51.208;8.904;2023-07-22T05:42:43;10.87;;;7.80;;
8714;SDS011;4394;51.208;8.904;2023-07-22T05:45:31;10.17;;;7.87;;
8714;SDS011;4394;51.208;8.904;2023-07-22T05:48:19;11.30;;;7.97;;
8714;SDS011;4394;51.208;8.904;2023-07-22T05:51:08;13.27;;;8.80;;
8714;SDS011;4394;51.208;8.904;2023-07-22T05:53:58;12.27;;;7.93;;
8714;SDS011;4394;51.208;8.904;2023-07-22T05:56:46;12.23;;;8.10;;
8714;SDS011;4394;51.208;8.904;2023-07-22T05:59:34;12.17;;;8.57;;
8714;SDS011;4394;51.208;8.904;2023-07-22T06:02:23;14.07;;;8.33;;
8714;SDS011;4394;51.208;8.904;2023-07-22T06:05:11;13.20;;;8.77;;
8714;SDS011;4394;51.208;8.904;2023-07-22T06:07:59;12.67;;;7.87;;
8714;SDS011;4394;51.208;8.904;2023-07-22T06:10:49;11.53;;;8.23;;
8714;SDS011;4394;51.208;8.904;2023-07-22T06:13:37;11.13;;;7.77;;
8714;SDS011;4394;51.208;8.904;2023-07-22T06:16:26;9.60;;;7.87;;
8714;SDS011;4394;51.208;8.904;2023-07-22T06:19:14;10.60;;;7.87;;
8714;SDS011;4394;51.208;8.904;2023-07-22T06:22:03;10.40;;;7.97;;
8714;SDS011;4394;51.208;8.904;2023-07-22T06:24:52;11.10;;;7.40;;
8714;SDS011;4394;51.208;8.904;2023-07-22T06:27:41;12.95;;;9.48;;
8714;SDS011;4394;51.208;8.904;2023-07-22T06:30:30;10.23;;;8.07;;
8714;SDS011;4394;51.208;8.904;2023-07-22T06:33:18;11.83;;;8.60;;
8714;SDS011;4394;51.208;8.904;2023-07-22T06:36:07;12.53;;;7.93;;
8714;SDS011;4394;51.208;8.904;2023-07-22T06:38:55;10.37;;;7.60;;
8714;SDS011;4394;51.208;8.904;2023-07-22T06:41:43;11.10;;;7.97;;
8714;SDS011;4394;51.208;8.904;2023-07-22T06:44:32;10.20;;;7.53;;
8714;SDS011;4394;51.208;8.904;2023-07-22T06:47:21;11.33;;;8.00;;
8714;SDS011;4394;51.208;8.904;2023-07-22T06:50:09;10.67;;;7.27;;
8714;SDS011;4394;51.208;8.904;2023-07-22T06:52:58;10.17;;;7.37;;
8714;SDS011;4394;51.208;8.904;2023-07-22T06:55:49;10.13;;;7.83;;
8714;SDS011;4394;51.208;8.904;2023-07-22T06:58:37;11.30;;;7.30;;
8714;SDS011;4394;51.208;8.904;2023-07-22T07:01:27;11.60;;;7.90;;
8714;SDS011;4394;51.208;8.904;2023-07-22T07:04:15;10.43;;;7.87;;
8714;SDS011;4394;51.208;8.904;2023-07-22T07:07:03;10.90;;;7.80;;
8714;SDS011;4394;51.208;8.904;2023-07-22T07:09:51;9.33;;;7.20;;
8714;SDS011;4394;51.208;8.904;2023-07-22T07:12:40;9.00;;;7.20;;
8714;SDS011;4394;51.208;8.904;2023-07-22T07:15:28;11.67;;;7.67;;
8714;SDS011;4394;51.208;8.904;2023-07-22T07:18:17;9.67;;;6.73;;
8714;SDS011;4394;51.208;8.904;2023-07-22T07:21:07;11.97;;;6.97;;
8714;SDS011;4394;51.208;8.904;2023-07-22T07:23:55;10.23;;;7.00;;
8714;SDS011;4394;51.208;8.904;2023-07-22T07:26:43;9.80;;;6.93;;
8714;SDS011;4394;51.208;8.904;2023-07-22T07:29:31;9.87;;;7.37;;
8714;SDS011;4394;51.208;8.904;2023-07-22T07:32:38;10.20;;;7.10;;
8714;SDS011;4394;51.208;8.904;2023-07-22T07:35:28;10.27;;;7.40;;
8714;SDS011;4394;51.208;8.904;2023-07-22T07:38:16;8.93;;;7.10;;
8714;SDS011;4394;51.208;8.904;2023-07-22T07:41:05;9.20;;;5.93;;
8714;SDS011;4394;51.208;8.904;2023-07-22T07:43:54;7.93;;;6.33;;
8714;SDS011;4394;51.208;8.904;2023-07-22T07:46:42;10.30;;;7.20;;
8714;SDS011;4394;51.208;8.904;2023-07-22T07:49:31;8.93;;;7.00;;
8714;SDS011;4394;51.208;8.904;2023-07-22T07:52:20;7.67;;;6.37;;
8714;SDS011;4394;51.208;8.904;2023-07-22T07:55:09;8.83;;;6.70;;
8714;SDS011;4394;51.208;8.904;2023-07-22T07:57:57;9.60;;;7.53;;
8714;SDS011;4394;51.208;8.904;2023-07-22T08:00:45;7.90;;;6.50;;
8714;SDS011;4394;51.208;8.904;2023-07-22T08:03:34;8.77;;;6.88;;
8714;SDS011;4394;51.208;8.904;2023-07-22T08:06:23;9.93;;;6.60;;
8714;SDS011;4394;51.208;8.904;2023-07-22T08:09:12;10.10;;;7.13;;
8714;SDS011;4394;51.208;8.904;2023-07-22T08:12:05;7.13;;;5.87;;
8714;SDS011;4394;51.208;8.904;2023-07-22T08:14:54;7.80;;;6.30;;
8714;SDS011;4394;51.208;8.904;2023-07-22T08:17:42;8.87;;;6.30;;
8714;SDS011;4394;51.208;8.904;2023-07-22T08:20:30;9.20;;;6.30;;
8714;SDS011;4394;51.208;8.904;2023-07-22T08:23:18;10.27;;;6.60;;
8714;SDS011;4394;51.208;8.904;2023-07-22T08:26:08;9.20;;;6.60;;
8714;SDS011;4394;51.208;8.904;2023-07-22T08:28:56;7.70;;;6.60;;
8714;SDS011;4394;51.208;8.904;2023-07-22T08:31:44;11.37;;;7.90;;
8714;SDS011;4394;51.208;8.904;2023-07-22T08:34:32;10.73;;;7.40;;
8714;SDS011;4394;51.208;8.904;2023-07-22T08:37:20;9.27;;;7.53;;
8714;SDS011;4394;51.208;8.904;2023-07-22T08:40:09;9.40;;;7.93;;
8714;SDS011;4394;51.208;8.904;2023-07-22T08:43:00;8.10;;;6.03;;
8714;SDS011;4394;51.208;8.904;2023-07-22T08:45:49;8.40;;;6.60;;
8714;SDS011;4394;51.208;8.904;2023-07-22T08:48:40;7.90;;;6.60;;
8714;SDS011;4394;51.208;8.904;2023-07-22T08:51:29;8.33;;;6.47;;
8714;SDS011;4394;51.208;8.904;2023-07-22T08:54:19;7.97;;;6.47;;
8714;SDS011;4394;51.208;8.904;2023-07-22T08:57:08;15.00;;;10.50;;
8714;SDS011;4394;51.208;8.904;2023-07-22T09:00:00;8.07;;;6.37;;
8714;SDS011;4394;51.208;8.904;2023-07-22T09:02:51;7.82;;;6.50;;
8714;SDS011;4394;51.208;8.904;2023-07-22T09:05:40;7.77;;;5.77;;
8714;SDS011;4394;51.208;8.904;2023-07-22T09:08:31;7.50;;;6.20;;
8714;SDS011;4394;51.208;8.904;2023-07-22T09:11:21;8.10;;;5.53;;
8714;SDS011;4394;51.208;8.904;2023-07-22T09:14:09;6.80;;;5.47;;
8714;SDS011;4394;51.208;8.904;2023-07-22T09:17:06;7.30;;;5.73;;
8714;SDS011;4394;51.208;8.904;2023-07-22T09:19:54;8.40;;;5.97;;
8714;SDS011;4394;51.208;8.904;2023-07-22T09:22:43;8.77;;;5.83;;
8714;SDS011;4394;51.208;8.904;2023-07-22T09:25:34;6.20;;;5.30;;
8714;SDS011;4394;51.208;8.904;2023-07-22T09:28:22;6.80;;;5.47;;
8714;SDS011;4394;51.208;8.904;2023-07-22T09:31:10;6.73;;;5.20;;
8714;SDS011;4394;51.208;8.904;2023-07-22T09:34:08;6.63;;;5.43;;
8714;SDS011;4394;51.208;8.904;2023-07-22T09:36:58;6.33;;;5.23;;
8714;SDS011;4394;51.208;8.904;2023-07-22T09:39:48;6.20;;;5.30;;
8714;SDS011;4394;51.208;8.904;2023-07-22T09:42:36;7.97;;;7.03;;
8714;SDS011;4394;51.208;8.904;2023-07-22T09:45:24;6.63;;;5.27;;
8714;SDS011;4394;51.208;8.904;2023-07-22T09:48:13;6.57;;;5.07;;
8714;SDS011;4394;51.208;8.904;2023-07-22T09:51:03;6.10;;;5.23;;
8714;SDS011;4394;51.208;8.904;2023-07-22T09:53:58;5.63;;;4.90;;
8714;SDS011;4394;51.208;8.904;2023-07-22T09:56:48;5.50;;;4.80;;
8714;SDS011;4394;51.208;8.904;2023-07-22T09:59:37;7.40;;;4.43;;
8714;SDS011;4394;51.208;8.904;2023-07-22T10:02:25;6.97;;;5.00;;
8714;SDS011;4394;51.208;8.904;2023-07-22T10:05:14;4.60;;;4.10;;
8714;SDS011;4394;51.208;8.904;2023-07-22T10:08:05;5.38;;;4.30;;
8714;SDS011;4394;51.208;8.904;2023-07-22T10:10:54;6.53;;;4.07;;
8714;SDS011;4394;51.208;8.904;2023-07-22T10:13:47;4.70;;;4.20;;
8714;SDS011;4394;51.208;8.904;2023-07-22T10:16:36;5.47;;;4.57;;
8714;SDS011;4394;51.208;8.904;2023-07-22T10:19:24;6.53;;;4.43;;
8714;SDS011;4394;51.208;8.904;2023-07-22T10:22:12;4.63;;;3.90;;
8714;SDS011;4394;51.208;8.904;2023-07-22T10:25:03;6.07;;;4.63;;
8714;SDS011;4394;51.208;8.904;2023-07-22T10:27:52;5.93;;;4.07;;
8714;SDS011;4394;51.208;8.904;2023-07-22T10:30:41;5.70;;;4.57;;
8714;SDS011;4394;51.208;8.904;2023-07-22T10:33:29;6.93;;;4.50;;
8714;SDS011;4394;51.208;8.904;2023-07-22T10:36:17;5.43;;;4.03;;
8714;SDS011;4394;51.208;8.904;2023-07-22T10:39:05;5.00;;;4.20;;
8714;SDS011;4394;51.208;8.904;2023-07-22T10:42:00;4.67;;;4.10;;
8714;SDS011;4394;51.208;8.904;2023-07-22T10:44:51;5.67;;;5.17;;
8714;SDS011;4394;51.208;8.904;2023-07-22T10:47:39;5.13;;;4.50;;
8714;SDS011;4394;51.208;8.904;2023-07-22T10:50:37;5.37;;;4.67;;
8714;SDS011;4394;51.208;8.904;2023-07-22T10:53:29;6.97;;;4.77;;
8714;SDS011;4394;51.208;8.904;2023-07-22T10:56:18;5.13;;;4.37;;
8714;SDS011;4394;51.208;8.904;2023-07-22T10:59:10;4.40;;;4.00;;
8714;SDS011;4394;51.208;8.904;2023-07-22T11:01:59;8.40;;;4.30;;
8714;SDS011;4394;51.208;8.904;2023-07-22T11:04:47;5.07;;;4.57;;
8714;SDS011;4394;51.208;8.904;2023-07-22T11:07:42;5.23;;;4.50;;
8714;SDS011;4394;51.208;8.904;2023-07-22T11:10:33;5.30;;;4.33;;
8714;SDS011;4394;51.208;8.904;2023-07-22T11:13:26;6.30;;;4.50;;
8714;SDS011;4394;51.208;8.904;2023-07-22T11:16:17;5.10;;;4.57;;
8714;SDS011;4394;51.208;8.904;2023-07-22T11:19:05;5.17;;;4.17;;
8714;SDS011;4394;51.208;8.904;2023-07-22T11:21:53;5.47;;;4.40;;
8714;SDS011;4394;51.208;8.904;2023-07-22T11:24:42;4.70;;;4.20;;
8714;SDS011;4394;51.208;8.904;2023-07-22T11:27:30;4.67;;;4.17;;
8714;SDS011;4394;51.208;8.904;2023-07-22T11:30:19;4.43;;;4.03;;
8714;SDS011;4394;51.208;8.904;2023-07-22T11:33:08;4.20;;;3.80;;
8714;SDS011;4394;51.208;8.904;2023-07-22T11:35:56;4.70;;;3.60;;
8714;SDS011;4394;51.208;8.904;2023-07-22T11:38:44;6.20;;;4.17;;
8714;SDS011;4394;51.208;8.904;2023-07-22T11:41:33;4.33;;;3.73;;
8714;SDS011;4394;51.208;8.904;2023-07-22T11:44:25;5.57;;;3.63;;
8714;SDS011;4394;51.208;8.904;2023-07-22T11:47:15;5.70;;;4.07;;
8714;SDS011;4394;51.208;8.904;2023-07-22T11:50:05;5.40;;;4.00;;
8714;SDS011;4394;51.208;8.904;2023-07-22T11:52:54;3.60;;;3.30;;
8714;SDS011;4394;51.208;8.904;2023-07-22T11:55:42;5.00;;;3.83;;
8714;SDS011;4394;51.208;8.904;2023-07-22T11:58:31;4.40;;;4.00;;
8714;SDS011;4394;51.208;8.904;2023-07-22T12:01:21;4.20;;;3.80;;
8714;SDS011;4394;51.208;8.904;2023-07-22T12:04:10;4.43;;;3.80;;
8714;SDS011;4394;51.208;8.904;2023-07-22T12:07:00;5.23;;;4.50;;
8714;SDS011;4394;51.208;8.904;2023-07-22T12:09:51;4.50;;;4.10;;
8714;SDS011;4394;51.208;8.904;2023-07-22T12:12:40;4.88;;;4.47;;
8714;SDS011;4394;51.208;8.904;2023-07-22T12:15:30;4.73;;;4.33;;
8714;SDS011;4394;51.208;8.904;2023-07-22T12:18:18;5.13;;;3.97;;
8714;SDS011;4394;51.208;8.904;2023-07-22T12:21:06;4.57;;;4.07;;
8714;SDS011;4394;51.208;8.904;2023-07-22T12:23:56;5.40;;;4.67;;
8714;SDS011;4394;51.208;8.904;2023-07-22T12:26:45;6.67;;;4.60;;
8714;SDS011;4394;51.208;8.904;2023-07-22T12:29:33;5.53;;;4.30;;
8714;SDS011;4394;51.208;8.904;2023-07-22T12:32:21;5.20;;;4.60;;
8714;SDS011;4394;51.208;8.904;2023-07-22T12:35:09;5.30;;;4.43;;
8714;SDS011;4394;51.208;8.904;2023-07-22T12:38:00;5.60;;;4.07;;
8714;SDS011;4394;51.208;8.904;2023-07-22T12:40:49;6.37;;;4.43;;
8714;SDS011;4394;51.208;8.904;2023-07-22T12:43:37;6.13;;;4.77;;
8714;SDS011;4394;51.208;8.904;2023-07-22T12:46:25;6.43;;;4.57;;
8714;SDS011;4394;51.208;8.904;2023-07-22T12:49:14;4.73;;;4.23;;
8714;SDS011;4394;51.208;8.904;2023-07-22T12:52:02;4.67;;;4.03;;
8714;SDS011;4394;51.208;8.904;2023-07-22T12:54:54;4.50;;;4.00;;
8714;SDS011;4394;51.208;8.904;2023-07-22T12:57:43;4.07;;;3.67;;
8714;SDS011;4394;51.208;8.904;2023-07-22T13:00:32;5.17;;;3.90;;
8714;SDS011;4394;51.208;8.904;2023-07-22T13:03:20;4.30;;;3.90;;
8714;SDS011;4394;51.208;8.904;2023-07-22T13:06:08;4.27;;;3.87;;
8714;SDS011;4394;51.208;8.904;2023-07-22T13:08:56;4.53;;;4.03;;
8714;SDS011;4394;51.208;8.904;2023-07-22T13:11:44;4.20;;;3.80;;
8714;SDS011;4394;51.208;8.904;2023-07-22T13:14:34;3.83;;;3.53;;
8714;SDS011;4394;51.208;8.904;2023-07-22T13:17:25;5.40;;;3.70;;
8714;SDS011;4394;51.208;8.904;2023-07-22T13:20:13;4.43;;;4.03;;
8714;SDS011;4394;51.208;8.904;2023-07-22T13:23:02;4.35;;;3.70;;
8714;SDS011;4394;51.208;8.904;2023-07-22T13:25:50;5.47;;;3.40;;
8714;SDS011;4394;51.208;8.904;2023-07-22T13:28:38;3.87;;;3.43;;
8714;SDS011;4394;51.208;8.904;2023-07-22T13:31:27;3.57;;;3.27;;
8714;SDS011;4394;51.208;8.904;2023-07-22T13:34:16;3.73;;;2.63;;
8714;SDS011;4394;51.208;8.904;2023-07-22T13:37:04;3.10;;;2.90;;
8714;SDS011;4394;51.208;8.904;2023-07-22T13:39:53;3.63;;;3.10;;
8714;SDS011;4394;51.208;8.904;2023-07-22T13:42:41;3.23;;;2.93;;
8714;SDS011;4394;51.208;8.904;2023-07-22T13:45:29;3.30;;;3.00;;
8714;SDS011;4394;51.208;8.904;2023-07-22T13:48:21;3.50;;;2.83;;
8714;SDS011;4394;51.208;8.904;2023-07-22T13:51:09;3.70;;;2.70;;
8714;SDS011;4394;51.208;8.904;2023-07-22T13:53:57;3.40;;;3.10;;
8714;SDS011;4394;51.208;8.904;2023-07-22T13:56:45;4.40;;;2.93;;
8714;SDS011;4394;51.208;8.904;2023-07-22T13:59:33;2.93;;;2.63;;
8714;SDS011;4394;51.208;8.904;2023-07-22T14:02:22;2.93;;;2.67;;
8714;SDS011;4394;51.208;8.904;2023-07-22T14:05:11;3.20;;;2.90;;
8714;SDS011;4394;51.208;8.904;2023-07-22T14:07:59;4.70;;;3.00;;
8714;SDS011;4394;51.208;8.904;2023-07-22T14:10:48;3.13;;;2.80;;
8714;SDS011;4394;51.208;8.904;2023-07-22T14:13:36;3.30;;;2.90;;
8714;SDS011;4394;51.208;8.904;2023-07-22T14:16:24;3.17;;;2.90;;
8714;SDS011;4394;51.208;8.904;2023-07-22T14:19:12;3.30;;;2.80;;
8714;SDS011;4394;51.208;8.904;2023-07-22T14:22:01;3.53;;;3.20;;
8714;SDS011;4394;51.208;8.904;2023-07-22T14:24:50;4.07;;;3.57;;
8714;SDS011;4394;51.208;8.904;2023-07-22T14:27:38;4.60;;;3.33;;
8714;SDS011;4394;51.208;8.904;2023-07-22T14:30:27;3.60;;;3.30;;
8714;SDS011;4394;51.208;8.904;2023-07-22T14:33:15;3.63;;;3.33;;
8714;SDS011;4394;51.208;8.904;2023-07-22T14:36:03;3.47;;;2.97;;
8714;SDS011;4394;51.208;8.904;2023-07-22T14:38:53;3.43;;;3.13;;
8714;SDS011;4394;51.208;8.904;2023-07-22T14:41:42;3.63;;;3.17;;
8714;SDS011;4394;51.208;8.904;2023-07-22T14:44:30;3.77;;;3.47;;
8714;SDS011;4394;51.208;8.904;2023-07-22T14:47:18;3.97;;;3.37;;
8714;SDS011;4394;51.208;8.904;2023-07-22T14:50:07;3.73;;;3.43;;
8714;SDS011;4394;51.208;8.904;2023-07-22T14:52:56;3.97;;;3.53;;
8714;SDS011;4394;51.208;8.904;2023-07-22T14:55:46;4.17;;;3.77;;
8714;SDS011;4394;51.208;8.904;2023-07-22T14:58:38;3.80;;;3.50;;
8714;SDS011;4394;51.208;8.904;2023-07-22T15:01:28;4.43;;;3.50;;
8714;SDS011;4394;51.208;8.904;2023-07-22T15:04:24;3.73;;;3.10;;
8714;SDS011;4394;51.208;8.904;2023-07-22T15:07:12;3.70;;;3.00;;
8714;SDS011;4394;51.208;8.904;2023-07-22T15:10:00;4.00;;;3.70;;
8714;SDS011;4394;51.208;8.904;2023-07-22T15:12:50;4.33;;;3.33;;
8714;SDS011;4394;51.208;8.904;2023-07-22T15:15:38;3.40;;;3.10;;
8714;SDS011;4394;51.208;8.904;2023-07-22T15:18:26;3.80;;;3.40;;
8714;SDS011;4394;51.208;8.904;2023-07-22T15:21:14;3.80;;;3.27;;
8714;SDS011;4394;51.208;8.904;2023-07-22T15:24:02;3.50;;;3.20;;
8714;SDS011;4394;51.208;8.904;2023-07-22T15:26:51;3.57;;;3.27;;
8714;SDS011;4394;51.208;8.904;2023-07-22T15:29:40;37.70;;;11.47;;
8714;SDS011;4394;51.208;8.904;2023-07-22T15:32:29;5.40;;;3.60;;
8714;SDS011;4394;51.208;8.904;2023-07-22T15:35:17;3.37;;;3.03;;
8714;SDS011;4394;51.208;8.904;2023-07-22T15:38:08;4.32;;;3.80;;
8714;SDS011;4394;51.208;8.904;2023-07-22T15:40:56;2.97;;;2.70;;
8714;SDS011;4394;51.208;8.904;2023-07-22T15:43:45;6.28;;;3.20;;
8714;SDS011;4394;51.208;8.904;2023-07-22T15:46:34;3.33;;;3.00;;
8714;SDS011;4394;51.208;8.904;2023-07-22T15:49:23;3.88;;;3.58;;
8714;SDS011;4394;51.208;8.904;2023-07-22T15:52:11;4.25;;;3.00;;
8714;SDS011;4394;51.208;8.904;2023-07-22T15:54:59;3.28;;;2.97;;
8714;SDS011;4394;51.208;8.904;2023-07-22T15:57:47;3.58;;;3.08;;
8714;SDS011;4394;51.208;8.904;2023-07-22T16:00:35;3.28;;;2.97;;
8714;SDS011;4394;51.208;8.904;2023-07-22T16:03:24;3.42;;;3.13;;
8714;SDS011;4394;51.208;8.904;2023-07-22T16:06:13;3.08;;;2.78;;
8714;SDS011;4394;51.208;8.904;2023-07-22T16:09:18;3.17;;;2.80;;
8714;SDS011;4394;51.208;8.904;2023-07-22T16:12:06;2.80;;;2.60;;
8714;SDS011;4394;51.208;8.904;2023-07-22T16:14:55;3.47;;;3.15;;
8714;SDS011;4394;51.208;8.904;2023-07-22T16:17:44;3.45;;;3.13;;
8714;SDS011;4394;51.208;8.904;2023-07-22T16:20:33;4.13;;;3.05;;
8714;SDS011;4394;51.208;8.904;2023-07-22T16:23:21;3.58;;;2.90;;
8714;SDS011;4394;51.208;8.904;2023-07-22T16:26:09;3.60;;;3.30;;
8714;SDS011;4394;51.208;8.904;2023-07-22T16:28:57;3.35;;;3.05;;
8714;SDS011;4394;51.208;8.904;2023-07-22T16:31:45;3.30;;;3.00;;
8714;SDS011;4394;51.208;8.904;2023-07-22T16:34:33;14.10;;;4.50;;
8714;SDS011;4394;51.208;8.904;2023-07-22T16:37:23;3.88;;;3.15;;
8714;SDS011;4394;51.208;8.904;2023-07-22T16:40:11;3.20;;;2.90;;
8714;SDS011;4394;51.208;8.904;2023-07-22T16:43:00;4.10;;;3.25;;
8714;SDS011;4394;51.208;8.904;2023-07-22T16:45:48;3.35;;;3.05;;
8714;SDS011;4394;51.208;8.904;2023-07-22T16:48:37;3.70;;;3.30;;
8714;SDS011;4394;51.208;8.904;2023-07-22T16:51:25;5.20;;;3.20;;
8714;SDS011;4394;51.208;8.904;2023-07-22T16:54:15;4.65;;;3.17;;
8714;SDS011;4394;51.208;8.904;2023-07-22T16:57:03;3.72;;;3.33;;
8714;SDS011;4394;51.208;8.904;2023-07-22T16:59:52;3.67;;;3.30;;
8714;SDS011;4394;51.208;8.904;2023-07-22T17:02:41;4.05;;;3.58;;
8714;SDS011;4394;51.208;8.904;2023-07-22T17:05:30;5.07;;;3.67;;
8714;SDS011;4394;51.208;8.904;2023-07-22T17:08:18;4.40;;;3.40;;
8714;SDS011;4394;51.208;8.904;2023-07-22T17:11:08;5.30;;;3.35;;
8714;SDS011;4394;51.208;8.904;2023-07-22T17:13:56;3.88;;;3.55;;
8714;SDS011;4394;51.208;8.904;2023-07-22T17:16:44;3.50;;;3.20;;
8714;SDS011;4394;51.208;8.904;2023-07-22T17:19:32;4.28;;;3.53;;
8714;SDS011;4394;51.208;8.904;2023-07-22T17:22:21;4.85;;;3.35;;
8714;SDS011;4394;51.208;8.904;2023-07-22T17:25:09;3.57;;;3.27;;